sensor_id;sensor_type;location;lat;lon;timestamp;P1;durP1;ratioP1;P2;durP2;ratioP2
34988;SDS011;21192;40.182;44.516;2022-08-21T00:00:55;24.88;;;6.35;;
34988;SDS011;21192;40.182;44.516;2022-08-21T00:03:21;20.13;;;5.30;;
34988;SDS011;21192;40.182;44.516;2022-08-21T00:05:48;23.00;;;5.53;;
34988;SDS011;21192;40.182;44.516;2022-08-21T00:08:16;26.63;;;6.50;;
34988;SDS011;21192;40.182;44.516;2022-08-21T00:10:43;26.02;;;5.35;;
34988;SDS011;21192;40.182;44.516;2022-08-21T00:13:10;26.23;;;5.65;;
34988;SDS011;21192;40.182;44.516;2022-08-21T00:15:37;16.30;;;5.00;;
34988;SDS011;21192;40.182;44.516;2022-08-21T00:18:05;19.88;;;5.03;;
34988;SDS011;21192;40.182;44.516;2022-08-21T00:20:33;18.13;;;4.60;;
34988;SDS011;21192;40.182;44.516;2022-08-21T00:22:59;23.25;;;5.22;;
34988;SDS011;21192;40.182;44.516;2022-08-21T00:25:26;25.23;;;5.95;;
34988;SDS011;21192;40.182;44.516;2022-08-21T00:27:52;23.60;;;5.97;;
34988;SDS011;21192;40.182;44.516;2022-08-21T00:30:19;12.73;;;4.60;;
34988;SDS011;21192;40.182;44.516;2022-08-21T00:32:46;20.55;;;5.72;;
34988;SDS011;21192;40.182;44.516;2022-08-21T00:35:14;16.85;;;4.63;;
34988;SDS011;21192;40.182;44.516;2022-08-21T00:37:41;19.05;;;4.28;;
34988;SDS011;21192;40.182;44.516;2022-08-21T00:40:12;25.13;;;5.55;;
34988;SDS011;21192;40.182;44.516;2022-08-21T00:42:40;19.52;;;4.82;;
34988;SDS011;21192;40.182;44.516;2022-08-21T00:45:07;20.75;;;5.03;;
34988;SDS011;21192;40.182;44.516;2022-08-21T00:47:34;18.98;;;4.55;;
34988;SDS011;21192;40.182;44.516;2022-08-21T00:50:00;21.27;;;4.65;;
34988;SDS011;21192;40.182;44.516;2022-08-21T00:52:29;15.02;;;4.30;;
34988;SDS011;21192;40.182;44.516;2022-08-21T00:54:57;18.80;;;4.70;;
34988;SDS011;21192;40.182;44.516;2022-08-21T00:57:36;14.43;;;4.47;;
34988;SDS011;21192;40.182;44.516;2022-08-21T01:00:09;14.38;;;4.80;;
34988;SDS011;21192;40.182;44.516;2022-08-21T01:02:38;23.58;;;5.55;;
34988;SDS011;21192;40.182;44.516;2022-08-21T01:05:05;16.40;;;4.32;;
34988;SDS011;21192;40.182;44.516;2022-08-21T01:07:32;17.27;;;4.30;;
34988;SDS011;21192;40.182;44.516;2022-08-21T01:09:58;15.75;;;4.25;;
34988;SDS011;21192;40.182;44.516;2022-08-21T01:12:24;20.00;;;4.47;;
34988;SDS011;21192;40.182;44.516;2022-08-21T01:14:52;17.27;;;4.30;;
34988;SDS011;21192;40.182;44.516;2022-08-21T01:17:18;20.73;;;4.10;;
34988;SDS011;21192;40.182;44.516;2022-08-21T01:19:45;14.43;;;4.30;;
34988;SDS011;21192;40.182;44.516;2022-08-21T01:22:12;18.15;;;3.88;;
34988;SDS011;21192;40.182;44.516;2022-08-21T01:24:38;23.95;;;5.10;;
34988;SDS011;21192;40.182;44.516;2022-08-21T01:27:04;17.42;;;4.15;;
34988;SDS011;21192;40.182;44.516;2022-08-21T01:29:54;16.05;;;4.18;;
34988;SDS011;21192;40.182;44.516;2022-08-21T01:32:23;20.15;;;4.47;;
34988;SDS011;21192;40.182;44.516;2022-08-21T01:34:50;23.10;;;4.60;;
34988;SDS011;21192;40.182;44.516;2022-08-21T01:37:18;14.75;;;4.05;;
34988;SDS011;21192;40.182;44.516;2022-08-21T01:39:45;18.75;;;4.38;;
34988;SDS011;21192;40.182;44.516;2022-08-21T01:42:12;15.30;;;4.20;;
34988;SDS011;21192;40.182;44.516;2022-08-21T01:44:39;23.67;;;5.05;;
34988;SDS011;21192;40.182;44.516;2022-08-21T01:47:06;16.90;;;4.53;;
34988;SDS011;21192;40.182;44.516;2022-08-21T01:49:34;20.67;;;5.38;;
34988;SDS011;21192;40.182;44.516;2022-08-21T01:52:02;19.35;;;5.32;;
34988;SDS011;21192;40.182;44.516;2022-08-21T01:54:29;20.38;;;4.32;;
34988;SDS011;21192;40.182;44.516;2022-08-21T01:56:55;21.55;;;3.83;;
34988;SDS011;21192;40.182;44.516;2022-08-21T01:59:22;13.48;;;4.20;;
34988;SDS011;21192;40.182;44.516;2022-08-21T02:01:49;22.58;;;4.43;;
34988;SDS011;21192;40.182;44.516;2022-08-21T02:04:16;19.30;;;4.68;;
34988;SDS011;21192;40.182;44.516;2022-08-21T02:06:42;16.77;;;3.85;;
34988;SDS011;21192;40.182;44.516;2022-08-21T02:09:10;17.95;;;4.30;;
34988;SDS011;21192;40.182;44.516;2022-08-21T02:11:37;20.60;;;4.15;;
34988;SDS011;21192;40.182;44.516;2022-08-21T02:14:06;19.15;;;4.32;;
34988;SDS011;21192;40.182;44.516;2022-08-21T02:16:33;21.30;;;4.20;;
34988;SDS011;21192;40.182;44.516;2022-08-21T02:18:59;13.85;;;3.88;;
34988;SDS011;21192;40.182;44.516;2022-08-21T02:21:26;17.50;;;4.63;;
34988;SDS011;21192;40.182;44.516;2022-08-21T02:23:52;11.02;;;3.83;;
34988;SDS011;21192;40.182;44.516;2022-08-21T02:26:18;19.75;;;4.97;;
34988;SDS011;21192;40.182;44.516;2022-08-21T02:28:43;16.00;;;4.40;;
34988;SDS011;21192;40.182;44.516;2022-08-21T02:31:10;27.13;;;5.40;;
34988;SDS011;21192;40.182;44.516;2022-08-21T02:33:36;16.77;;;4.40;;
34988;SDS011;21192;40.182;44.516;2022-08-21T02:36:02;16.58;;;3.80;;
34988;SDS011;21192;40.182;44.516;2022-08-21T02:38:30;14.13;;;3.70;;
34988;SDS011;21192;40.182;44.516;2022-08-21T02:41:00;12.80;;;4.32;;
34988;SDS011;21192;40.182;44.516;2022-08-21T02:43:27;13.88;;;4.10;;
34988;SDS011;21192;40.182;44.516;2022-08-21T02:45:54;17.33;;;4.53;;
34988;SDS011;21192;40.182;44.516;2022-08-21T02:48:23;17.48;;;3.72;;
34988;SDS011;21192;40.182;44.516;2022-08-21T02:50:56;15.00;;;4.30;;
34988;SDS011;21192;40.182;44.516;2022-08-21T02:53:23;15.82;;;4.03;;
34988;SDS011;21192;40.182;44.516;2022-08-21T02:55:50;21.17;;;4.45;;
34988;SDS011;21192;40.182;44.516;2022-08-21T02:58:20;18.17;;;4.55;;
34988;SDS011;21192;40.182;44.516;2022-08-21T03:00:48;18.17;;;3.92;;
34988;SDS011;21192;40.182;44.516;2022-08-21T03:03:15;15.85;;;3.65;;
34988;SDS011;21192;40.182;44.516;2022-08-21T03:05:41;18.80;;;4.35;;
34988;SDS011;21192;40.182;44.516;2022-08-21T03:08:09;17.55;;;4.10;;
34988;SDS011;21192;40.182;44.516;2022-08-21T03:10:38;21.42;;;5.55;;
34988;SDS011;21192;40.182;44.516;2022-08-21T03:13:06;20.27;;;4.65;;
34988;SDS011;21192;40.182;44.516;2022-08-21T03:15:33;22.70;;;4.05;;
34988;SDS011;21192;40.182;44.516;2022-08-21T03:17:59;15.73;;;4.15;;
34988;SDS011;21192;40.182;44.516;2022-08-21T03:20:27;15.57;;;4.38;;
34988;SDS011;21192;40.182;44.516;2022-08-21T03:22:54;12.65;;;4.00;;
34988;SDS011;21192;40.182;44.516;2022-08-21T03:25:21;25.08;;;4.35;;
34988;SDS011;21192;40.182;44.516;2022-08-21T03:27:49;13.15;;;3.95;;
34988;SDS011;21192;40.182;44.516;2022-08-21T03:30:16;20.75;;;4.03;;
34988;SDS011;21192;40.182;44.516;2022-08-21T03:32:43;18.27;;;4.82;;
34988;SDS011;21192;40.182;44.516;2022-08-21T03:35:11;19.08;;;4.40;;
34988;SDS011;21192;40.182;44.516;2022-08-21T03:37:38;20.73;;;4.75;;
34988;SDS011;21192;40.182;44.516;2022-08-21T03:40:08;19.88;;;4.90;;
34988;SDS011;21192;40.182;44.516;2022-08-21T03:42:34;18.02;;;4.28;;
34988;SDS011;21192;40.182;44.516;2022-08-21T03:45:00;19.58;;;4.80;;
34988;SDS011;21192;40.182;44.516;2022-08-21T03:47:27;17.30;;;4.75;;
34988;SDS011;21192;40.182;44.516;2022-08-21T03:49:53;17.92;;;4.65;;
34988;SDS011;21192;40.182;44.516;2022-08-21T03:52:19;15.95;;;5.15;;
34988;SDS011;21192;40.182;44.516;2022-08-21T03:54:45;23.63;;;4.82;;
34988;SDS011;21192;40.182;44.516;2022-08-21T03:57:11;23.27;;;4.88;;
34988;SDS011;21192;40.182;44.516;2022-08-21T03:59:37;21.38;;;5.20;;
34988;SDS011;21192;40.182;44.516;2022-08-21T04:02:04;17.25;;;4.47;;
34988;SDS011;21192;40.182;44.516;2022-08-21T04:04:32;20.13;;;5.07;;
34988;SDS011;21192;40.182;44.516;2022-08-21T04:06:59;18.48;;;4.47;;
34988;SDS011;21192;40.182;44.516;2022-08-21T04:09:25;18.85;;;4.25;;
34988;SDS011;21192;40.182;44.516;2022-08-21T04:11:52;20.17;;;4.38;;
34988;SDS011;21192;40.182;44.516;2022-08-21T04:14:18;22.30;;;4.72;;
34988;SDS011;21192;40.182;44.516;2022-08-21T04:16:45;19.17;;;4.78;;
34988;SDS011;21192;40.182;44.516;2022-08-21T04:19:11;13.85;;;4.43;;
34988;SDS011;21192;40.182;44.516;2022-08-21T04:21:41;22.15;;;4.70;;
34988;SDS011;21192;40.182;44.516;2022-08-21T04:24:08;13.98;;;4.20;;
34988;SDS011;21192;40.182;44.516;2022-08-21T04:26:35;19.40;;;4.40;;
34988;SDS011;21192;40.182;44.516;2022-08-21T04:29:03;18.85;;;4.03;;
34988;SDS011;21192;40.182;44.516;2022-08-21T04:31:32;16.00;;;4.03;;
34988;SDS011;21192;40.182;44.516;2022-08-21T04:33:59;9.40;;;3.67;;
34988;SDS011;21192;40.182;44.516;2022-08-21T04:36:25;11.57;;;3.88;;
34988;SDS011;21192;40.182;44.516;2022-08-21T04:38:51;18.50;;;3.92;;
34988;SDS011;21192;40.182;44.516;2022-08-21T04:41:17;16.65;;;3.10;;
34988;SDS011;21192;40.182;44.516;2022-08-21T04:43:43;12.77;;;2.67;;
34988;SDS011;21192;40.182;44.516;2022-08-21T04:46:09;16.15;;;3.03;;
34988;SDS011;21192;40.182;44.516;2022-08-21T04:48:35;15.93;;;3.63;;
34988;SDS011;21192;40.182;44.516;2022-08-21T04:51:09;15.32;;;3.78;;
34988;SDS011;21192;40.182;44.516;2022-08-21T04:54:00;19.90;;;4.82;;
34988;SDS011;21192;40.182;44.516;2022-08-21T04:56:33;16.98;;;4.47;;
34988;SDS011;21192;40.182;44.516;2022-08-21T04:59:05;18.23;;;4.13;;
34988;SDS011;21192;40.182;44.516;2022-08-21T05:01:36;12.90;;;2.85;;
34988;SDS011;21192;40.182;44.516;2022-08-21T05:04:04;15.13;;;3.35;;
34988;SDS011;21192;40.182;44.516;2022-08-21T05:06:33;10.27;;;2.50;;
34988;SDS011;21192;40.182;44.516;2022-08-21T05:09:02;13.18;;;4.00;;
34988;SDS011;21192;40.182;44.516;2022-08-21T05:11:29;12.05;;;3.17;;
34988;SDS011;21192;40.182;44.516;2022-08-21T05:13:56;17.10;;;3.70;;
34988;SDS011;21192;40.182;44.516;2022-08-21T05:16:22;21.65;;;4.85;;
34988;SDS011;21192;40.182;44.516;2022-08-21T05:18:48;21.08;;;5.00;;
34988;SDS011;21192;40.182;44.516;2022-08-21T05:21:14;17.17;;;5.20;;
34988;SDS011;21192;40.182;44.516;2022-08-21T05:23:40;20.05;;;4.70;;
34988;SDS011;21192;40.182;44.516;2022-08-21T05:26:06;18.90;;;4.22;;
34988;SDS011;21192;40.182;44.516;2022-08-21T05:28:32;17.25;;;3.60;;
34988;SDS011;21192;40.182;44.516;2022-08-21T05:30:58;15.02;;;3.47;;
34988;SDS011;21192;40.182;44.516;2022-08-21T05:33:24;14.00;;;3.53;;
34988;SDS011;21192;40.182;44.516;2022-08-21T05:35:50;14.05;;;3.33;;
34988;SDS011;21192;40.182;44.516;2022-08-21T05:38:18;17.77;;;3.20;;
34988;SDS011;21192;40.182;44.516;2022-08-21T05:40:44;13.20;;;2.85;;
34988;SDS011;21192;40.182;44.516;2022-08-21T05:43:11;15.45;;;3.28;;
34988;SDS011;21192;40.182;44.516;2022-08-21T05:45:37;24.60;;;5.25;;
34988;SDS011;21192;40.182;44.516;2022-08-21T05:48:19;23.42;;;6.68;;
34988;SDS011;21192;40.182;44.516;2022-08-21T05:50:48;15.80;;;3.90;;
34988;SDS011;21192;40.182;44.516;2022-08-21T05:53:15;10.02;;;2.80;;
34988;SDS011;21192;40.182;44.516;2022-08-21T05:55:43;11.68;;;2.88;;
34988;SDS011;21192;40.182;44.516;2022-08-21T05:58:10;18.88;;;3.92;;
34988;SDS011;21192;40.182;44.516;2022-08-21T06:00:36;14.52;;;3.80;;
34988;SDS011;21192;40.182;44.516;2022-08-21T06:03:03;15.35;;;3.65;;
34988;SDS011;21192;40.182;44.516;2022-08-21T06:05:29;22.10;;;4.80;;
34988;SDS011;21192;40.182;44.516;2022-08-21T06:07:55;18.75;;;5.47;;
34988;SDS011;21192;40.182;44.516;2022-08-21T06:10:21;16.40;;;5.20;;
34988;SDS011;21192;40.182;44.516;2022-08-21T06:12:52;18.25;;;4.10;;
34988;SDS011;21192;40.182;44.516;2022-08-21T06:15:19;15.85;;;4.07;;
34988;SDS011;21192;40.182;44.516;2022-08-21T06:17:45;16.30;;;4.40;;
34988;SDS011;21192;40.182;44.516;2022-08-21T06:20:11;19.48;;;4.18;;
34988;SDS011;21192;40.182;44.516;2022-08-21T06:22:36;14.75;;;3.30;;
34988;SDS011;21192;40.182;44.516;2022-08-21T06:25:03;17.60;;;4.20;;
34988;SDS011;21192;40.182;44.516;2022-08-21T06:27:29;19.25;;;3.50;;
34988;SDS011;21192;40.182;44.516;2022-08-21T06:29:55;21.30;;;4.32;;
34988;SDS011;21192;40.182;44.516;2022-08-21T06:32:22;17.98;;;4.18;;
34988;SDS011;21192;40.182;44.516;2022-08-21T06:34:48;21.23;;;5.63;;
34988;SDS011;21192;40.182;44.516;2022-08-21T06:37:14;21.73;;;6.03;;
34988;SDS011;21192;40.182;44.516;2022-08-21T06:39:40;31.52;;;7.60;;
34988;SDS011;21192;40.182;44.516;2022-08-21T06:42:06;24.25;;;4.43;;
34988;SDS011;21192;40.182;44.516;2022-08-21T06:44:37;16.85;;;3.45;;
34988;SDS011;21192;40.182;44.516;2022-08-21T06:47:03;20.85;;;4.40;;
34988;SDS011;21192;40.182;44.516;2022-08-21T06:49:29;21.73;;;5.97;;
34988;SDS011;21192;40.182;44.516;2022-08-21T06:51:55;20.58;;;5.05;;
34988;SDS011;21192;40.182;44.516;2022-08-21T06:54:21;16.27;;;4.55;;
34988;SDS011;21192;40.182;44.516;2022-08-21T06:56:47;15.07;;;3.97;;
34988;SDS011;21192;40.182;44.516;2022-08-21T06:59:13;24.27;;;5.03;;
34988;SDS011;21192;40.182;44.516;2022-08-21T07:01:39;14.80;;;3.83;;
34988;SDS011;21192;40.182;44.516;2022-08-21T07:04:05;18.48;;;3.90;;
34988;SDS011;21192;40.182;44.516;2022-08-21T07:06:31;22.85;;;3.53;;
34988;SDS011;21192;40.182;44.516;2022-08-21T07:08:57;19.08;;;3.90;;
34988;SDS011;21192;40.182;44.516;2022-08-21T07:11:23;21.60;;;5.13;;
34988;SDS011;21192;40.182;44.516;2022-08-21T07:13:50;22.80;;;4.90;;
34988;SDS011;21192;40.182;44.516;2022-08-21T07:16:18;16.35;;;4.10;;
34988;SDS011;21192;40.182;44.516;2022-08-21T07:18:48;23.10;;;5.95;;
34988;SDS011;21192;40.182;44.516;2022-08-21T07:21:15;28.30;;;6.40;;
34988;SDS011;21192;40.182;44.516;2022-08-21T07:23:43;21.98;;;4.85;;
34988;SDS011;21192;40.182;44.516;2022-08-21T07:26:12;23.75;;;6.80;;
34988;SDS011;21192;40.182;44.516;2022-08-21T07:28:39;19.10;;;5.18;;
34988;SDS011;21192;40.182;44.516;2022-08-21T07:31:05;17.55;;;3.65;;
34988;SDS011;21192;40.182;44.516;2022-08-21T07:33:33;17.13;;;4.45;;
34988;SDS011;21192;40.182;44.516;2022-08-21T07:36:00;11.90;;;5.18;;
34988;SDS011;21192;40.182;44.516;2022-08-21T07:38:26;14.32;;;3.33;;
34988;SDS011;21192;40.182;44.516;2022-08-21T07:40:52;12.13;;;3.55;;
34988;SDS011;21192;40.182;44.516;2022-08-21T07:43:21;14.10;;;3.63;;
34988;SDS011;21192;40.182;44.516;2022-08-21T07:45:48;19.02;;;5.35;;
34988;SDS011;21192;40.182;44.516;2022-08-21T07:48:14;24.13;;;4.88;;
34988;SDS011;21192;40.182;44.516;2022-08-21T07:50:41;19.02;;;4.72;;
34988;SDS011;21192;40.182;44.516;2022-08-21T07:53:08;23.25;;;4.70;;
34988;SDS011;21192;40.182;44.516;2022-08-21T07:55:34;18.08;;;4.72;;
34988;SDS011;21192;40.182;44.516;2022-08-21T07:58:00;19.23;;;4.93;;
34988;SDS011;21192;40.182;44.516;2022-08-21T08:00:27;26.08;;;7.18;;
34988;SDS011;21192;40.182;44.516;2022-08-21T08:02:54;20.45;;;5.60;;
34988;SDS011;21192;40.182;44.516;2022-08-21T08:05:23;13.82;;;4.55;;
34988;SDS011;21192;40.182;44.516;2022-08-21T08:07:51;19.52;;;4.90;;
34988;SDS011;21192;40.182;44.516;2022-08-21T08:10:18;19.50;;;4.97;;
34988;SDS011;21192;40.182;44.516;2022-08-21T08:12:44;16.05;;;4.65;;
34988;SDS011;21192;40.182;44.516;2022-08-21T08:15:12;21.95;;;4.70;;
34988;SDS011;21192;40.182;44.516;2022-08-21T08:17:44;23.40;;;5.47;;
34988;SDS011;21192;40.182;44.516;2022-08-21T08:20:11;18.05;;;5.78;;
34988;SDS011;21192;40.182;44.516;2022-08-21T08:22:38;22.95;;;5.03;;
34988;SDS011;21192;40.182;44.516;2022-08-21T08:25:06;25.80;;;5.95;;
34988;SDS011;21192;40.182;44.516;2022-08-21T08:27:34;19.75;;;4.90;;
34988;SDS011;21192;40.182;44.516;2022-08-21T08:30:00;24.48;;;6.68;;
34988;SDS011;21192;40.182;44.516;2022-08-21T08:32:27;19.90;;;6.05;;
34988;SDS011;21192;40.182;44.516;2022-08-21T08:34:53;19.10;;;4.90;;
34988;SDS011;21192;40.182;44.516;2022-08-21T08:37:19;31.30;;;6.70;;
34988;SDS011;21192;40.182;44.516;2022-08-21T08:39:46;22.80;;;5.60;;
34988;SDS011;21192;40.182;44.516;2022-08-21T08:42:22;25.52;;;7.57;;
34988;SDS011;21192;40.182;44.516;2022-08-21T08:45:13;17.77;;;5.07;;
34988;SDS011;21192;40.182;44.516;2022-08-21T08:47:44;20.60;;;6.88;;
34988;SDS011;21192;40.182;44.516;2022-08-21T08:53:12;38.28;;;7.50;;
34988;SDS011;21192;40.182;44.516;2022-08-21T08:55:45;25.85;;;6.07;;
34988;SDS011;21192;40.182;44.516;2022-08-21T08:58:18;27.35;;;5.38;;
34988;SDS011;21192;40.182;44.516;2022-08-21T09:00:56;23.90;;;6.93;;
34988;SDS011;21192;40.182;44.516;2022-08-21T09:03:23;19.23;;;6.88;;
34988;SDS011;21192;40.182;44.516;2022-08-21T09:18:41;11.88;;;3.83;;
34988;SDS011;21192;40.182;44.516;2022-08-21T09:21:32;22.58;;;6.97;;
34988;SDS011;21192;40.182;44.516;2022-08-21T09:24:13;28.17;;;8.32;;
34988;SDS011;21192;40.182;44.516;2022-08-21T09:26:47;18.08;;;6.03;;
34988;SDS011;21192;40.182;44.516;2022-08-21T09:29:31;18.25;;;4.60;;
34988;SDS011;21192;40.182;44.516;2022-08-21T09:32:00;20.42;;;5.38;;
34988;SDS011;21192;40.182;44.516;2022-08-21T09:34:32;26.40;;;7.22;;
34988;SDS011;21192;40.182;44.516;2022-08-21T09:36:58;29.05;;;8.68;;
34988;SDS011;21192;40.182;44.516;2022-08-21T09:42:00;33.53;;;6.45;;
34988;SDS011;21192;40.182;44.516;2022-08-21T09:44:28;39.47;;;8.75;;
34988;SDS011;21192;40.182;44.516;2022-08-21T09:46:56;22.52;;;5.05;;
34988;SDS011;21192;40.182;44.516;2022-08-21T09:49:26;20.33;;;4.97;;
34988;SDS011;21192;40.182;44.516;2022-08-21T09:51:56;12.35;;;4.40;;
34988;SDS011;21192;40.182;44.516;2022-08-21T09:54:26;18.23;;;5.95;;
34988;SDS011;21192;40.182;44.516;2022-08-21T09:56:58;11.60;;;4.30;;
34988;SDS011;21192;40.182;44.516;2022-08-21T09:59:44;12.80;;;4.53;;
34988;SDS011;21192;40.182;44.516;2022-08-21T10:04:58;24.63;;;5.32;;
34988;SDS011;21192;40.182;44.516;2022-08-21T10:07:26;22.60;;;5.60;;
34988;SDS011;21192;40.182;44.516;2022-08-21T10:10:02;13.68;;;5.20;;
34988;SDS011;21192;40.182;44.516;2022-08-21T10:12:46;24.42;;;7.15;;
34988;SDS011;21192;40.182;44.516;2022-08-21T10:15:42;24.15;;;7.30;;
34988;SDS011;21192;40.182;44.516;2022-08-21T10:18:26;23.25;;;7.85;;
34988;SDS011;21192;40.182;44.516;2022-08-21T10:26:15;35.25;;;9.55;;
34988;SDS011;21192;40.182;44.516;2022-08-21T10:29:09;26.40;;;7.03;;
34988;SDS011;21192;40.182;44.516;2022-08-21T10:31:58;22.27;;;6.63;;
34988;SDS011;21192;40.182;44.516;2022-08-21T10:42:49;24.60;;;7.13;;
34988;SDS011;21192;40.182;44.516;2022-08-21T10:45:25;25.65;;;7.63;;
34988;SDS011;21192;40.182;44.516;2022-08-21T10:48:46;25.17;;;7.07;;
34988;SDS011;21192;40.182;44.516;2022-08-21T10:51:16;25.35;;;7.07;;
34988;SDS011;21192;40.182;44.516;2022-08-21T10:56:42;23.10;;;7.03;;
34988;SDS011;21192;40.182;44.516;2022-08-21T11:04:57;15.27;;;5.60;;
34988;SDS011;21192;40.182;44.516;2022-08-21T11:07:38;14.40;;;4.57;;
34988;SDS011;21192;40.182;44.516;2022-08-21T11:10:21;24.15;;;6.15;;
34988;SDS011;21192;40.182;44.516;2022-08-21T11:12:58;16.75;;;5.97;;
34988;SDS011;21192;40.182;44.516;2022-08-21T11:21:01;30.83;;;7.50;;
34988;SDS011;21192;40.182;44.516;2022-08-21T11:26:25;28.45;;;5.80;;
34988;SDS011;21192;40.182;44.516;2022-08-21T11:28:58;19.92;;;5.40;;
34988;SDS011;21192;40.182;44.516;2022-08-21T11:31:51;17.48;;;4.35;;
34988;SDS011;21192;40.182;44.516;2022-08-21T11:37:08;21.92;;;6.28;;
34988;SDS011;21192;40.182;44.516;2022-08-21T11:39:52;12.52;;;4.30;;
34988;SDS011;21192;40.182;44.516;2022-08-21T11:45:39;26.75;;;6.93;;
34988;SDS011;21192;40.182;44.516;2022-08-21T11:51:04;11.90;;;4.22;;
34988;SDS011;21192;40.182;44.516;2022-08-21T11:53:44;19.40;;;5.00;;
34988;SDS011;21192;40.182;44.516;2022-08-21T11:56:23;24.48;;;5.00;;
34988;SDS011;21192;40.182;44.516;2022-08-21T11:58:56;17.48;;;4.65;;
34988;SDS011;21192;40.182;44.516;2022-08-21T12:01:31;24.73;;;5.75;;
34988;SDS011;21192;40.182;44.516;2022-08-21T12:04:02;17.83;;;5.78;;
34988;SDS011;21192;40.182;44.516;2022-08-21T12:06:33;21.00;;;5.85;;
34988;SDS011;21192;40.182;44.516;2022-08-21T12:09:28;31.35;;;7.85;;
34988;SDS011;21192;40.182;44.516;2022-08-21T12:12:10;27.52;;;6.60;;
34988;SDS011;21192;40.182;44.516;2022-08-21T12:14:41;18.75;;;5.32;;
34988;SDS011;21192;40.182;44.516;2022-08-21T12:17:22;16.45;;;4.55;;
34988;SDS011;21192;40.182;44.516;2022-08-21T12:20:00;32.00;;;7.75;;
34988;SDS011;21192;40.182;44.516;2022-08-21T12:22:40;17.10;;;5.80;;
34988;SDS011;21192;40.182;44.516;2022-08-21T12:25:08;33.35;;;8.93;;
34988;SDS011;21192;40.182;44.516;2022-08-21T12:27:44;29.88;;;8.55;;
34988;SDS011;21192;40.182;44.516;2022-08-21T12:30:45;18.00;;;6.47;;
34988;SDS011;21192;40.182;44.516;2022-08-21T12:33:18;19.55;;;4.38;;
34988;SDS011;21192;40.182;44.516;2022-08-21T12:41:55;13.05;;;3.65;;
34988;SDS011;21192;40.182;44.516;2022-08-21T12:44:46;12.55;;;3.38;;
34988;SDS011;21192;40.182;44.516;2022-08-21T12:47:28;15.95;;;3.90;;
34988;SDS011;21192;40.182;44.516;2022-08-21T12:52:40;8.77;;;3.67;;
34988;SDS011;21192;40.182;44.516;2022-08-21T12:55:14;15.55;;;4.22;;
34988;SDS011;21192;40.182;44.516;2022-08-21T12:57:41;15.57;;;4.28;;
34988;SDS011;21192;40.182;44.516;2022-08-21T13:00:08;13.80;;;4.65;;
34988;SDS011;21192;40.182;44.516;2022-08-21T13:02:39;23.30;;;6.63;;
34988;SDS011;21192;40.182;44.516;2022-08-21T13:05:12;26.05;;;6.18;;
34988;SDS011;21192;40.182;44.516;2022-08-21T13:07:44;18.48;;;5.57;;
34988;SDS011;21192;40.182;44.516;2022-08-21T13:10:23;17.60;;;5.22;;
34988;SDS011;21192;40.182;44.516;2022-08-21T13:12:55;12.18;;;3.85;;
34988;SDS011;21192;40.182;44.516;2022-08-21T13:15:28;26.00;;;6.28;;
34988;SDS011;21192;40.182;44.516;2022-08-21T13:17:56;31.27;;;7.63;;
34988;SDS011;21192;40.182;44.516;2022-08-21T13:20:38;12.55;;;4.60;;
34988;SDS011;21192;40.182;44.516;2022-08-21T13:23:25;24.33;;;6.65;;
34988;SDS011;21192;40.182;44.516;2022-08-21T13:25:52;33.95;;;9.25;;
34988;SDS011;21192;40.182;44.516;2022-08-21T13:28:19;23.00;;;7.28;;
34988;SDS011;21192;40.182;44.516;2022-08-21T13:30:52;19.65;;;5.25;;
34988;SDS011;21192;40.182;44.516;2022-08-21T13:33:21;12.35;;;3.42;;
34988;SDS011;21192;40.182;44.516;2022-08-21T13:35:52;15.15;;;3.83;;
34988;SDS011;21192;40.182;44.516;2022-08-21T13:38:32;26.10;;;6.32;;
34988;SDS011;21192;40.182;44.516;2022-08-21T13:41:04;35.92;;;7.72;;
34988;SDS011;21192;40.182;44.516;2022-08-21T13:43:33;32.35;;;9.13;;
34988;SDS011;21192;40.182;44.516;2022-08-21T13:46:00;19.20;;;6.60;;
34988;SDS011;21192;40.182;44.516;2022-08-21T13:48:32;17.27;;;4.75;;
34988;SDS011;21192;40.182;44.516;2022-08-21T13:50:59;10.00;;;3.28;;
34988;SDS011;21192;40.182;44.516;2022-08-21T13:56:40;10.65;;;3.53;;
34988;SDS011;21192;40.182;44.516;2022-08-21T13:59:08;11.73;;;3.47;;
34988;SDS011;21192;40.182;44.516;2022-08-21T14:01:55;14.95;;;4.35;;
34988;SDS011;21192;40.182;44.516;2022-08-21T14:04:31;25.70;;;6.65;;
34988;SDS011;21192;40.182;44.516;2022-08-21T14:07:01;16.50;;;4.93;;
34988;SDS011;21192;40.182;44.516;2022-08-21T14:09:42;21.00;;;5.95;;
34988;SDS011;21192;40.182;44.516;2022-08-21T14:15:15;13.50;;;4.28;;
34988;SDS011;21192;40.182;44.516;2022-08-21T14:17:44;12.73;;;3.25;;
34988;SDS011;21192;40.182;44.516;2022-08-21T14:20:12;12.13;;;3.88;;
34988;SDS011;21192;40.182;44.516;2022-08-21T14:22:51;14.35;;;4.90;;
34988;SDS011;21192;40.182;44.516;2022-08-21T14:27:53;19.60;;;5.40;;
34988;SDS011;21192;40.182;44.516;2022-08-21T14:30:22;10.95;;;4.30;;
34988;SDS011;21192;40.182;44.516;2022-08-21T14:32:54;13.02;;;4.85;;
34988;SDS011;21192;40.182;44.516;2022-08-21T14:35:20;20.95;;;4.55;;
34988;SDS011;21192;40.182;44.516;2022-08-21T14:37:47;28.13;;;9.70;;
34988;SDS011;21192;40.182;44.516;2022-08-21T14:40:16;20.65;;;6.18;;
34988;SDS011;21192;40.182;44.516;2022-08-21T14:42:43;14.32;;;5.93;;
34988;SDS011;21192;40.182;44.516;2022-08-21T14:45:13;16.17;;;5.25;;
34988;SDS011;21192;40.182;44.516;2022-08-21T14:47:40;22.05;;;4.72;;
34988;SDS011;21192;40.182;44.516;2022-08-21T14:50:08;15.70;;;4.88;;
34988;SDS011;21192;40.182;44.516;2022-08-21T14:52:35;12.88;;;5.50;;
34988;SDS011;21192;40.182;44.516;2022-08-21T14:55:02;25.25;;;8.90;;
34988;SDS011;21192;40.182;44.516;2022-08-21T14:57:29;20.10;;;8.05;;
34988;SDS011;21192;40.182;44.516;2022-08-21T14:59:56;26.95;;;8.13;;
34988;SDS011;21192;40.182;44.516;2022-08-21T15:02:24;16.42;;;6.25;;
34988;SDS011;21192;40.182;44.516;2022-08-21T15:04:51;21.63;;;7.38;;
34988;SDS011;21192;40.182;44.516;2022-08-21T15:07:17;20.17;;;6.82;;
34988;SDS011;21192;40.182;44.516;2022-08-21T15:09:43;14.68;;;4.93;;
34988;SDS011;21192;40.182;44.516;2022-08-21T15:12:09;14.70;;;5.10;;
34988;SDS011;21192;40.182;44.516;2022-08-21T15:14:38;18.40;;;6.03;;
34988;SDS011;21192;40.182;44.516;2022-08-21T15:17:08;36.30;;;9.82;;
34988;SDS011;21192;40.182;44.516;2022-08-21T15:19:36;34.40;;;10.63;;
34988;SDS011;21192;40.182;44.516;2022-08-21T15:22:03;33.65;;;9.55;;
34988;SDS011;21192;40.182;44.516;2022-08-21T15:24:29;34.95;;;9.48;;
34988;SDS011;21192;40.182;44.516;2022-08-21T15:26:55;25.58;;;6.55;;
34988;SDS011;21192;40.182;44.516;2022-08-21T15:29:24;31.80;;;8.38;;
34988;SDS011;21192;40.182;44.516;2022-08-21T15:31:54;25.90;;;6.65;;
34988;SDS011;21192;40.182;44.516;2022-08-21T15:34:22;34.08;;;7.53;;
34988;SDS011;21192;40.182;44.516;2022-08-21T15:36:49;41.42;;;10.02;;
34988;SDS011;21192;40.182;44.516;2022-08-21T15:39:15;27.58;;;8.63;;
34988;SDS011;21192;40.182;44.516;2022-08-21T15:41:41;20.98;;;7.22;;
34988;SDS011;21192;40.182;44.516;2022-08-21T15:44:08;30.40;;;7.57;;
34988;SDS011;21192;40.182;44.516;2022-08-21T15:46:36;27.17;;;7.30;;
34988;SDS011;21192;40.182;44.516;2022-08-21T15:49:03;54.75;;;19.77;;
34988;SDS011;21192;40.182;44.516;2022-08-21T15:51:29;34.13;;;9.05;;
34988;SDS011;21192;40.182;44.516;2022-08-21T15:53:55;35.40;;;9.30;;